JAK weather

Jacmel Airport
Jacmel, Sud-Est Department, Haiti

Public forecast

Using degrees Celsius for public forecast. Weather courtesy of forecast.io.

METAR (pilot weather report)

Report is more than 2 hours old.

Closest report is Toussaint Louverture International Airport, 24.1 nm (44.6 km) NNE. Retrieved 2019/03/26 00:00 UTC (6 hours ago):

MTPP 260000Z 30012KT 9000 FEW025 SCT050 28/21 Q1012 A2989

TAF (pilot weather forecast)

Forecast is more than 6 hours old.

Closest forecast is Toussaint Louverture International Airport, 24.1 nm (44.6 km) NNE. Retrieved 2019/03/25 18:53 UTC (11 hours ago):

TAF MTPP 251701Z 2518/2618 07007KT 9999 FEW025 SCT060 BECMG 2518/2522 27010KT PROB40 TEMPO 2602/2606 09010KT 4500 SHRA SCT022CB BKN070 BECMG 2608/2612 VRB02KT 9999 FEW022 BECMG 2614/2618 09010KT